地図

経路データ

SID SEASON NUMBER BASIN SUBBASIN NAME ISO_TIME NATURE LAT LON WMO_WIND WMO_PRES WMO_AGENCY TRACK_TYPE DIST2LAND LANDFALL IFLAG USA_AGENCY USA_ATCF_ID USA_LAT USA_LON USA_RECORD USA_STATUS USA_WIND USA_PRES USA_SSHS USA_R34_NE USA_R34_SE USA_R34_SW USA_R34_NW USA_R50_NE USA_R50_SE USA_R50_SW USA_R50_NW USA_R64_NE USA_R64_SE USA_R64_SW USA_R64_NW USA_POCI USA_ROCI USA_RMW USA_EYE TOKYO_LAT TOKYO_LON TOKYO_GRADE TOKYO_WIND TOKYO_PRES TOKYO_R50_DIR TOKYO_R50_LONG TOKYO_R50_SHORT TOKYO_R30_DIR TOKYO_R30_LONG TOKYO_R30_SHORT TOKYO_LAND CMA_LAT CMA_LON CMA_CAT CMA_WIND CMA_PRES HKO_LAT HKO_LON HKO_CAT HKO_WIND HKO_PRES NEWDELHI_LAT NEWDELHI_LON NEWDELHI_GRADE NEWDELHI_WIND NEWDELHI_PRES NEWDELHI_CI NEWDELHI_DP NEWDELHI_POCI REUNION_LAT REUNION_LON REUNION_TYPE REUNION_WIND REUNION_PRES REUNION_TNUM REUNION_CI REUNION_RMW REUNION_R34_NE REUNION_R34_SE REUNION_R34_SW REUNION_R34_NW REUNION_R50_NE REUNION_R50_SE REUNION_R50_SW REUNION_R50_NW REUNION_R64_NE REUNION_R64_SE REUNION_R64_SW REUNION_R64_NW BOM_LAT BOM_LON BOM_TYPE BOM_WIND BOM_PRES BOM_TNUM BOM_CI BOM_RMW BOM_R34_NE BOM_R34_SE BOM_R34_SW BOM_R34_NW BOM_R50_NE BOM_R50_SE BOM_R50_SW BOM_R50_NW BOM_R64_NE BOM_R64_SE BOM_R64_SW BOM_R64_NW BOM_ROCI BOM_POCI BOM_EYE BOM_POS_METHOD BOM_PRES_METHOD NADI_LAT NADI_LON NADI_CAT NADI_WIND NADI_PRES WELLINGTON_LAT WELLINGTON_LON WELLINGTON_WIND WELLINGTON_PRES DS824_LAT DS824_LON DS824_STAGE DS824_WIND DS824_PRES TD9636_LAT TD9636_LON TD9636_STAGE TD9636_WIND TD9636_PRES TD9635_LAT TD9635_LON TD9635_WIND TD9635_PRES TD9635_ROCI NEUMANN_LAT NEUMANN_LON NEUMANN_CLASS NEUMANN_WIND NEUMANN_PRES MLC_LAT MLC_LON MLC_CLASS MLC_WIND MLC_PRES USA_GUST BOM_GUST BOM_GUST_PER REUNION_GUST REUNION_GUST_PER USA_SEAHGT USA_SEARAD_NE USA_SEARAD_SE USA_SEARAD_SW USA_SEARAD_NW STORM_SPEED STORM_DIR
2022276N11337 2022 68 NA NA NOT_NAMED 2022-10-02 12:00:00 NR 11.3000 -23.2000 PROVISIONAL 707 707 O_____________ nhc_working_bt AL122022 11.3000 -23.2000 DB 15 -3 9 270
2022276N11337 2022 68 NA NA NOT_NAMED 2022-10-02 15:00:00 NR 11.3002 -23.6600 PROVISIONAL 761 761 P_____________ AL122022 11.3002 -23.6600 DB 15 -3 9 270
2022276N11337 2022 68 NA NA NOT_NAMED 2022-10-02 18:00:00 NR 11.3000 -24.1000 PROVISIONAL 804 804 O_____________ nhc_working_bt AL122022 11.3000 -24.1000 DB 15 1011 -3 1012 200 100 8 270
2022276N11337 2022 68 NA NA NOT_NAMED 2022-10-02 21:00:00 NR 11.2999 -24.5075 PROVISIONAL 847 847 P_____________ AL122022 11.2999 -24.5075 DB 15 1011 -3 1012 200 100 8 270
2022276N11337 2022 68 NA NA NOT_NAMED 2022-10-03 00:00:00 NR 11.3000 -24.9000 PROVISIONAL 887 887 O_____________ nhc_working_bt AL122022 11.3000 -24.9000 DB 15 1011 -3 1012 200 100 8 269
2022276N11337 2022 68 NA NA NOT_NAMED 2022-10-03 03:00:00 NR 11.2849 -25.2926 PROVISIONAL 927 927 P_____________ AL122022 11.2849 -25.2926 DB 15 1011 -3 1012 200 100 8 270
2022276N11337 2022 68 NA NA NOT_NAMED 2022-10-03 06:00:00 NR 11.3000 -25.7000 PROVISIONAL 966 966 O_____________ nhc_working_bt AL122022 11.3000 -25.7000 DB 15 1011 -3 1012 200 100 8 276
2022276N11337 2022 68 NA NA NOT_NAMED 2022-10-03 09:00:00 NR 11.3775 -26.1500 PROVISIONAL 1002 1002 P_____________ AL122022 11.3775 -26.1500 DB 17 1010 -3 1012 190 95 9 283
2022276N11337 2022 68 NA NA NOT_NAMED 2022-10-03 12:00:00 NR 11.5000 -26.6000 PROVISIONAL 1049 1049 O_____________ nhc_working_bt AL122022 11.5000 -26.6000 DB 20 1010 -3 1012 180 90 9 286
2022276N11337 2022 68 NA NA NOT_NAMED 2022-10-03 15:00:00 NR 11.6275 -27.0225 PROVISIONAL 1086 1086 P_____________ AL122022 11.6275 -27.0225 DB 22 1009 -3 1011 165 85 8 291
2022276N11337 2022 68 NA NA NOT_NAMED 2022-10-03 18:00:00 NR 11.8000 -27.4000 PROVISIONAL 1120 1120 O_____________ nhc_working_bt AL122022 11.8000 -27.4000 DB 25 1008 -3 1010 150 80 8 300
2022276N11337 2022 68 NA NA NOT_NAMED 2022-10-03 21:00:00 NR 12.0124 -27.7002 PROVISIONAL 1144 1141 P_____________ AL122022 12.0124 -27.7002 DB 27 1008 -3 1010 150 85 8 310
2022276N11337 2022 68 NA NA NOT_NAMED 2022-10-04 00:00:00 NR 12.3000 -28.0000 PROVISIONAL 1167 1167 O_____________ nhc_working_bt AL122022 12.3000 -28.0000 DB 30 1008 -3 1010 150 90 9 315
2022276N11337 2022 68 NA NA NOT_NAMED 2022-10-04 03:00:00 NR 12.6775 -28.3850 PROVISIONAL 1199 1199 P_____________ AL122022 12.6775 -28.3850 DB 27 1008 -3 1010 150 90 11 316
2022276N11337 2022 68 NA NA NOT_NAMED 2022-10-04 06:00:00 NR 13.1000 -28.8000 PROVISIONAL 1233 1233 O_____________ nhc_working_bt AL122022 13.1000 -28.8000 DB 25 1008 -3 1010 150 90 12 316
2022276N11337 2022 68 NA NA NOT_NAMED 2022-10-04 09:00:00 NR 13.5225 -29.2299 PROVISIONAL 1269 1269 P_____________ AL122022 13.5225 -29.2299 DB 25 1008 -3 1010 135 90 11 316
2022276N11337 2022 68 NA NA NOT_NAMED 2022-10-04 12:00:00 NR 13.9000 -29.6000 PROVISIONAL 1307 1307 O_____________ nhc_working_bt AL122022 13.9000 -29.6000 DB 25 1008 -3 1011 120 90 9 318
2022276N11337 2022 68 NA NA NOT_NAMED 2022-10-04 15:00:00 NR 14.1649 -29.8228 PROVISIONAL 1326 1326 P_____________ AL122022 14.1649 -29.8228 DB 27 1007 -3 1011 110 75 7 319
2022276N11337 2022 68 NA NA NOT_NAMED 2022-10-04 18:00:00 TS 14.4667 -30.1000 PROVISIONAL 1356 1356 O_____________ nhc_working_bt AL122022 14.4000 -30.0000 TD 30 1007 -1 1011 100 60 40 8 321
2022276N11337 2022 68 NA NA NOT_NAMED 2022-10-04 21:00:00 TS 14.7450 -30.3150 PROVISIONAL 1377 1376 P_____________ AL122022 14.7150 -30.2424 TD 30 1007 -1 1011 110 60 7 324
2022276N11337 2022 68 NA NA NOT_NAMED 2022-10-05 00:00:00 TS 15.0000 -30.5000 PROVISIONAL 1398 1398 O_____________ nhc_working_bt AL122022 15.0000 -30.5000 TD 30 1007 -1 1011 120 60 40 6 324
2022276N11337 2022 68 NA NA NOT_NAMED 2022-10-05 03:00:00 TS 15.2491 -30.6891 PROVISIONAL 1419 1419 P_____________ AL122022 15.1724 -30.7426 TD 30 1007 -1 1011 120 60 6 316
2022276N11337 2022 68 NA NA NOT_NAMED 2022-10-05 06:00:00 TS 15.4333 -30.9333 PROVISIONAL 1441 1441 O_____________ nhc_working_bt AL122022 15.3000 -31.0000 TD 30 1007 -1 1011 120 60 40 6 289
2022276N11337 2022 68 NA NA NOT_NAMED 2022-10-05 09:00:00 TS 15.4401 -31.2719 PROVISIONAL 1484 1484 P_____________ AL122022 15.4351 -31.3150 TD 30 1007 -1 1011 120 60 6 273
2022276N11337 2022 68 NA NA NOT_NAMED 2022-10-05 12:00:00 TS 15.4667 -31.6000 PROVISIONAL 1516 1516 O_____________ nhc_working_bt AL122022 15.6000 -31.6000 TD 30 1007 -1 1011 120 60 40 6 292
2022276N11337 2022 68 NA NA NOT_NAMED 2022-10-05 15:00:00 TS 15.6575 -31.8233 PROVISIONAL 1538 1538 P_____________ AL122022 15.7824 -31.7801 TD 30 1006 -1 1011 120 60 7 328
2022276N11337 2022 68 NA NA NOT_NAMED 2022-10-05 18:00:00 TS 16.0333 -31.9667 PROVISIONAL 1561 1561 O_____________ nhc_working_bt AL122022 16.1000 -31.9000 TD 30 1006 -1 1011 120 60 40 10 350
2022276N11337 2022 68 NA NA NOT_NAMED 2022-10-05 21:00:00 TS 16.6790 -32.0011 PROVISIONAL 1568 1568 P_____________ AL122022 16.7074 -31.9627 TD 30 1006 -1 1011 105 55 13 354
2022276N11337 2022 68 NA NA NOT_NAMED 2022-10-06 00:00:00 TS 17.3000 -32.1000 PROVISIONAL 1587 1587 O_____________ nhc_working_bt AL122022 17.3000 -32.1000 TD 30 1006 -1 1012 90 50 40 10 335
2022276N11337 2022 68 NA NA NOT_NAMED 2022-10-06 03:00:00 TS 17.5650 -32.4351 PROVISIONAL 1624 1624 P_____________ AL122022 17.5600 -32.4402 TD 30 1006 -1 1012 85 50 9 298
2022276N11337 2022 68 NA NA NOT_NAMED 2022-10-06 06:00:00 TS 17.7000 -32.9000 PROVISIONAL 1678 1678 O_____________ nhc_working_bt AL122022 17.7000 -32.9000 TD 30 1006 -1 1012 80 50 40 9 290
2022276N11337 2022 68 NA NA NOT_NAMED 2022-10-06 09:00:00 TS 17.8849 -33.3703 PROVISIONAL 1734 1734 P_____________ AL122022 17.8849 -33.3703 TD 30 1006 -1 1012 80 50 10 293
2022276N11337 2022 68 NA NA NOT_NAMED 2022-10-06 12:00:00 TS 18.1000 -33.9000 PROVISIONAL 1786 1786 O_____________ nhc_working_bt AL122022 18.1000 -33.9000 TD 30 1007 -1 1012 80 50 40 12 297
2022276N11337 2022 68 NA NA NOT_NAMED 2022-10-06 15:00:00 TS 18.4300 -34.4920 PROVISIONAL 1841 1841 P_____________ AL122022 18.4300 -34.4920 TD 30 1007 -1 1012 80 50 13 298
2022276N11337 2022 68 NA NA NOT_NAMED 2022-10-06 18:00:00 TS 18.7000 -35.1000 PROVISIONAL 1897 1897 O_____________ nhc_working_bt AL122022 18.7000 -35.1000 TD 30 1008 -1 1012 80 50 35 12 287
2022276N11337 2022 68 NA NA NOT_NAMED 2022-10-06 21:00:00 TS 18.7652 -35.6655 PROVISIONAL 1957 1957 P_____________ AL122022 18.7652 -35.6655 TD 30 1009 -1 1012 85 60 10 270
2022276N11337 2022 68 NA NA NOT_NAMED 2022-10-07 00:00:00 NR 18.7000 -36.2000 PROVISIONAL 2011 O_____________ nhc_working_bt AL122022 18.7000 -36.2000 DB 30 1010 -3 1012 90 70 40 10 263

IBTrACS Databaseについて

本データベースは、米国NOAAが公開する1842年以降の世界の熱帯低気圧のベストトラックデータアーカイブInternational Best Track Archive for Climate Stewardship (IBTrACS)を、ウェブで閲覧しやすい形式に変換したものです。

最終更新日:2022-11-16